createdAt,value
2023-05-20T00:02:04.460Z,30.20
2023-05-20T00:05:06.565Z,31.20
2023-05-20T00:08:08.220Z,29.20
2023-05-20T00:11:09.892Z,29.70
2023-05-20T00:14:11.532Z,29.50
2023-05-20T00:17:13.185Z,28.80
2023-05-20T00:20:15.124Z,28.30
2023-05-20T00:23:16.781Z,29.20
2023-05-20T00:26:20.072Z,27.50
2023-05-20T00:29:21.965Z,30.30
2023-05-20T00:32:24.999Z,29.70
2023-05-20T00:35:26.936Z,29.80
2023-05-20T00:38:28.510Z,30.40
2023-05-20T00:41:30.394Z,29.90
2023-05-20T00:44:32.070Z,29.00
2023-05-20T00:47:35.711Z,30.10
2023-05-20T00:50:37.360Z,30.00
2023-05-20T00:53:39.018Z,30.00
2023-05-20T00:56:40.745Z,29.10
2023-05-20T00:59:44.669Z,30.90
2023-05-20T01:02:46.951Z,32.50
2023-05-20T01:05:48.685Z,31.90
2023-05-20T01:08:50.451Z,31.80
2023-05-20T01:12:20.596Z,30.40
2023-05-20T01:15:25.241Z,30.50
2023-05-20T01:18:28.253Z,30.60
2023-05-20T01:21:33.970Z,31.90
2023-05-20T01:24:35.567Z,32.80
2023-05-20T01:27:37.315Z,31.90
2023-05-20T01:30:44.086Z,32.30
2023-05-20T01:33:47.733Z,32.00
2023-05-20T01:36:49.794Z,32.30
2023-05-20T01:39:52.244Z,33.10
2023-05-20T01:42:55.304Z,32.50
2023-05-20T01:45:57.042Z,33.50
2023-05-20T01:48:58.681Z,33.30
2023-05-20T01:52:00.663Z,32.70
2023-05-20T01:55:02.310Z,34.00
2023-05-20T01:58:04.025Z,35.00
2023-05-20T02:01:05.890Z,34.40
2023-05-20T02:04:07.630Z,32.90
2023-05-20T02:07:09.386Z,31.00
2023-05-20T02:10:11.366Z,33.00
2023-05-20T02:13:13.036Z,34.60
2023-05-20T02:16:14.737Z,33.50
2023-05-20T02:19:16.390Z,32.20
2023-05-20T02:22:18.379Z,33.30
2023-05-20T02:25:20.087Z,32.50
2023-05-20T02:28:22.074Z,33.50
2023-05-20T02:31:23.740Z,32.70
2023-05-20T02:34:25.397Z,33.20
2023-05-20T02:37:27.117Z,32.20
2023-05-20T02:40:28.790Z,33.60
2023-05-20T02:43:31.331Z,33.70
2023-05-20T02:46:34.724Z,33.80
2023-05-20T02:49:36.481Z,33.10
2023-05-20T02:52:38.090Z,33.60
2023-05-20T02:55:40.892Z,33.40
2023-05-20T02:58:42.554Z,32.50
2023-05-20T03:01:44.214Z,33.90
2023-05-20T03:04:46.165Z,34.70
2023-05-20T03:07:47.773Z,33.10
2023-05-20T03:10:49.464Z,32.20
2023-05-20T03:13:51.159Z,33.00
2023-05-20T03:16:53.809Z,33.40
2023-05-20T03:19:55.678Z,32.40
2023-05-20T03:22:57.388Z,32.70
2023-05-20T03:25:59.215Z,32.90
2023-05-20T03:29:00.777Z,34.70
2023-05-20T03:32:02.512Z,33.90
2023-05-20T03:35:04.399Z,33.00
2023-05-20T03:38:06.011Z,32.10
2023-05-20T03:41:07.617Z,32.50
2023-05-20T03:44:09.245Z,32.70
2023-05-20T03:47:10.967Z,33.50
2023-05-20T03:50:12.770Z,34.20
2023-05-20T03:53:14.492Z,34.10
2023-05-20T03:56:16.120Z,32.10
2023-05-20T03:59:19.109Z,31.90
2023-05-20T04:02:20.857Z,33.10
2023-05-20T04:05:23.684Z,32.70
2023-05-20T04:08:25.355Z,32.60
2023-05-20T04:11:27.036Z,34.70
2023-05-20T04:14:28.801Z,32.30
2023-05-20T04:17:31.558Z,34.60
2023-05-20T04:20:33.221Z,34.20
2023-05-20T04:23:34.881Z,35.60
2023-05-20T04:26:36.617Z,33.50
2023-05-20T04:29:38.250Z,34.10
2023-05-20T04:32:39.925Z,33.10
2023-05-20T04:35:41.894Z,35.30
2023-05-20T04:38:43.570Z,34.90
2023-05-20T04:41:45.340Z,34.30
2023-05-20T04:44:47.384Z,34.60
2023-05-20T04:47:49.031Z,34.30
2023-05-20T04:50:50.765Z,33.40
2023-05-20T04:53:52.451Z,33.20
2023-05-20T04:56:54.021Z,33.80
2023-05-20T04:59:55.700Z,33.60
2023-05-20T05:02:57.289Z,35.10
2023-05-20T05:05:59.300Z,35.00
2023-05-20T05:09:00.907Z,35.40
2023-05-20T05:12:02.557Z,35.30
2023-05-20T05:15:04.664Z,34.50
2023-05-20T05:18:06.332Z,34.70
2023-05-20T05:21:07.935Z,36.30
2023-05-20T05:24:09.530Z,34.40
2023-05-20T05:27:11.116Z,34.50
2023-05-20T05:30:12.835Z,35.60
2023-05-20T05:33:15.509Z,37.00
2023-05-20T05:36:17.575Z,35.40
2023-05-20T05:39:19.281Z,36.40
2023-05-20T05:42:20.927Z,37.70
2023-05-20T05:45:22.508Z,36.60
2023-05-20T05:48:24.197Z,37.30
2023-05-20T05:51:27.297Z,34.90
2023-05-20T05:54:28.866Z,35.30
2023-05-20T05:57:30.726Z,36.40
2023-05-20T06:00:32.396Z,36.90
2023-05-20T06:03:34.147Z,36.10
2023-05-20T06:06:35.879Z,37.20
2023-05-20T06:09:38.917Z,37.70
2023-05-20T06:12:40.732Z,36.90
2023-05-20T06:15:42.293Z,36.40
2023-05-20T06:18:45.932Z,37.60
2023-05-20T06:21:47.517Z,37.40
2023-05-20T06:24:49.060Z,37.20
2023-05-20T06:27:51.053Z,37.40
2023-05-20T06:30:54.593Z,35.60
2023-05-20T06:33:56.452Z,37.40
2023-05-20T06:36:58.781Z,36.90
2023-05-20T06:40:00.518Z,36.20
2023-05-20T06:43:02.155Z,36.90
2023-05-20T06:46:03.772Z,37.20
2023-05-20T06:49:05.565Z,35.90
2023-05-20T06:52:07.270Z,36.40
2023-05-20T06:55:09.661Z,36.20
2023-05-20T06:58:11.344Z,36.80
2023-05-20T07:01:13.246Z,37.80
2023-05-20T07:04:15.351Z,38.80
2023-05-20T07:07:17.421Z,37.60
2023-05-20T07:10:19.244Z,39.30
2023-05-20T07:13:20.877Z,39.00
2023-05-20T07:16:22.532Z,37.40
2023-05-20T07:19:24.190Z,38.60
2023-05-20T07:22:26.433Z,35.30
2023-05-20T07:25:28.048Z,37.50
2023-05-20T07:28:29.693Z,36.50
2023-05-20T07:31:31.406Z,36.50
2023-05-20T07:34:32.995Z,35.50
2023-05-20T07:37:34.604Z,35.50
2023-05-20T07:40:36.476Z,34.50
2023-05-20T07:43:38.094Z,34.00
2023-05-20T07:46:39.842Z,33.60
2023-05-20T07:49:41.441Z,32.50
2023-05-20T07:52:55.331Z,32.50
2023-05-20T07:55:58.309Z,34.00
2023-05-20T07:59:00.436Z,33.40
2023-05-20T08:02:02.424Z,34.90
2023-05-20T08:05:04.455Z,34.80
2023-05-20T08:08:06.194Z,37.00
2023-05-20T08:11:08.104Z,35.40
2023-05-20T08:14:09.775Z,35.20
2023-05-20T08:17:11.423Z,35.10
2023-05-20T08:20:13.702Z,34.60
2023-05-20T08:23:15.306Z,33.20
2023-05-20T08:26:16.944Z,33.30
2023-05-20T08:29:18.688Z,34.30
2023-05-20T08:32:20.433Z,35.80
2023-05-20T08:35:24.725Z,34.90
2023-05-20T08:38:26.703Z,35.00
2023-05-20T08:41:48.668Z,33.70
2023-05-20T08:44:52.701Z,32.50
2023-05-20T08:47:54.755Z,34.60
2023-05-20T08:50:58.045Z,29.80
2023-05-20T08:54:00.193Z,33.50
2023-05-20T08:57:01.759Z,30.70
2023-05-20T09:00:03.799Z,30.40
2023-05-20T09:03:05.901Z,30.70
2023-05-20T09:06:09.207Z,30.40
2023-05-20T09:09:14.719Z,31.00
2023-05-20T09:12:16.644Z,28.50
2023-05-20T09:15:18.365Z,29.10
2023-05-20T09:18:20.055Z,27.20
2023-05-20T09:21:26.824Z,29.30
2023-05-20T09:24:28.525Z,27.80
2023-05-20T09:27:30.159Z,26.80
2023-05-20T09:30:32.346Z,25.50
2023-05-20T09:33:33.922Z,28.10
2023-05-20T09:36:35.764Z,27.10
2023-05-20T09:39:51.734Z,27.30
2023-05-20T09:43:03.043Z,27.00
2023-05-20T09:46:05.243Z,26.70
2023-05-20T09:49:07.091Z,29.00
2023-05-20T09:52:08.866Z,29.30
2023-05-20T09:55:10.983Z,29.40
2023-05-20T09:58:16.043Z,30.20
2023-05-20T10:01:18.188Z,29.40
2023-05-20T10:04:20.496Z,27.90
2023-05-20T10:07:41.838Z,31.30
2023-05-20T10:11:09.758Z,30.60
2023-05-20T10:14:39.659Z,30.10
2023-05-20T10:21:18.323Z,28.30
2023-05-20T10:24:35.931Z,29.90
2023-05-20T10:27:45.164Z,29.40
2023-05-20T10:30:50.344Z,29.70
2023-05-20T10:33:53.359Z,27.80
2023-05-20T10:36:54.973Z,28.00
2023-05-20T10:40:11.291Z,26.40
2023-05-20T10:43:18.078Z,27.00
2023-05-20T10:46:32.606Z,26.90
2023-05-20T10:49:41.951Z,26.20
2023-05-20T10:52:43.626Z,23.90
2023-05-20T10:55:49.687Z,23.30
2023-05-20T10:58:53.076Z,23.70
2023-05-20T11:01:54.819Z,22.70
2023-05-20T11:04:57.126Z,24.40
2023-05-20T11:08:06.051Z,23.80
2023-05-20T11:11:30.434Z,20.00
2023-05-20T11:14:32.216Z,23.30
2023-05-20T11:17:33.909Z,22.80
2023-05-20T11:20:36.161Z,22.30
2023-05-20T11:23:40.499Z,20.80
2023-05-20T11:26:42.481Z,19.60
2023-05-20T11:29:44.167Z,19.90
2023-05-20T11:33:04.365Z,18.60
2023-05-20T11:36:08.744Z,19.50
2023-05-20T11:39:18.275Z,20.30
2023-05-20T11:42:21.590Z,17.90
2023-05-20T11:45:24.007Z,19.10
2023-05-20T11:48:25.754Z,17.80
2023-05-20T11:51:28.142Z,18.10
2023-05-20T11:54:29.729Z,18.20
2023-05-20T11:57:31.653Z,17.10
2023-05-20T12:00:46.747Z,16.50
2023-05-20T12:03:52.632Z,16.50
2023-05-20T12:06:54.499Z,16.50
2023-05-20T12:09:56.167Z,15.00
2023-05-20T12:12:58.644Z,15.00
2023-05-20T12:16:00.331Z,15.20
2023-05-20T12:19:02.085Z,15.00
2023-05-20T12:22:03.780Z,15.00
2023-05-20T12:25:05.965Z,14.90
2023-05-20T12:28:07.599Z,14.40
2023-05-20T12:31:09.249Z,15.10
2023-05-20T12:34:10.813Z,14.70
2023-05-20T12:37:12.602Z,14.70
2023-05-20T12:40:14.370Z,13.20
2023-05-20T12:43:16.110Z,14.80
2023-05-20T12:46:18.506Z,14.30
2023-05-20T12:49:20.105Z,14.10
2023-05-20T12:52:22.776Z,14.10
2023-05-20T12:55:24.967Z,14.10
2023-05-20T12:58:26.650Z,13.90
2023-05-20T13:01:28.614Z,13.60
2023-05-20T13:04:30.224Z,14.00
2023-05-20T13:07:32.392Z,14.00
2023-05-20T13:10:34.358Z,13.30
2023-05-20T13:13:36.268Z,13.10
2023-05-20T13:16:38.306Z,13.50
2023-05-20T13:19:40.302Z,13.60
2023-05-20T13:22:41.937Z,13.80
2023-05-20T13:25:43.466Z,13.20
2023-05-20T13:28:45.011Z,13.60
2023-05-20T13:31:47.489Z,13.60
2023-05-20T13:34:49.120Z,12.60
2023-05-20T13:37:50.901Z,13.20
2023-05-20T13:40:52.614Z,11.80
2023-05-20T13:43:54.148Z,11.80
2023-05-20T13:46:56.276Z,11.90
2023-05-20T13:49:58.013Z,11.60
2023-05-20T13:53:00.318Z,11.20
2023-05-20T13:56:02.159Z,11.40
2023-05-20T13:59:03.717Z,11.50
2023-05-20T14:02:05.515Z,11.30
2023-05-20T14:05:08.113Z,10.90
2023-05-20T14:08:09.725Z,10.40
2023-05-20T14:11:11.873Z,10.50
2023-05-20T14:14:13.562Z,10.30
2023-05-20T14:17:15.354Z,10.50
2023-05-20T14:20:17.198Z,10.90
2023-05-20T14:23:18.797Z,10.10
2023-05-20T14:26:20.370Z,9.30
2023-05-20T14:29:22.140Z,10.50
2023-05-20T14:32:23.991Z,10.70
2023-05-20T14:35:25.641Z,10.40
2023-05-20T14:38:28.811Z,10.20
2023-05-20T14:41:30.491Z,10.40
2023-05-20T14:44:32.188Z,10.50
2023-05-20T14:47:34.083Z,10.20
2023-05-20T14:50:36.063Z,10.10
2023-05-20T14:53:38.073Z,9.80
2023-05-20T14:56:40.197Z,10.20
2023-05-20T14:59:42.582Z,10.80
2023-05-20T15:02:44.227Z,11.10
2023-05-20T15:05:45.943Z,9.90
2023-05-20T15:08:47.529Z,10.30
2023-05-20T15:11:49.227Z,10.90
2023-05-20T15:14:50.866Z,9.20
2023-05-20T15:17:52.508Z,9.80
2023-05-20T15:20:54.168Z,9.80
2023-05-20T15:23:55.742Z,10.00
2023-05-20T15:26:57.369Z,9.70
2023-05-20T15:29:59.311Z,9.20
2023-05-20T15:33:01.009Z,8.20
2023-05-20T15:36:02.725Z,8.20
2023-05-20T15:39:04.374Z,7.80
2023-05-20T15:42:05.992Z,8.00
2023-05-20T15:45:09.511Z,8.50
2023-05-20T15:48:11.135Z,7.90
2023-05-20T15:51:12.864Z,8.10
2023-05-20T15:54:14.432Z,7.70
2023-05-20T15:57:16.033Z,8.30
2023-05-20T16:00:20.707Z,9.20
2023-05-20T16:03:22.403Z,8.70
2023-05-20T16:06:24.230Z,8.10
2023-05-20T16:09:25.857Z,8.10
2023-05-20T16:12:27.661Z,7.70
2023-05-20T16:15:29.382Z,7.80
2023-05-20T16:18:31.193Z,7.50
2023-05-20T16:21:32.761Z,8.30
2023-05-20T16:24:34.345Z,8.20
2023-05-20T16:27:35.909Z,8.40
2023-05-20T16:30:37.540Z,8.70
2023-05-20T16:33:39.178Z,8.60
2023-05-20T16:36:40.800Z,9.30
2023-05-20T16:39:42.457Z,7.90
2023-05-20T16:42:44.121Z,9.20
2023-05-20T16:45:45.709Z,8.80
2023-05-20T16:48:47.567Z,8.90
2023-05-20T16:51:49.254Z,8.60
2023-05-20T16:54:50.876Z,8.20
2023-05-20T16:57:52.477Z,9.00
2023-05-20T17:00:54.202Z,8.80
2023-05-20T17:03:55.876Z,8.70
2023-05-20T17:06:57.579Z,8.50
2023-05-20T17:09:59.214Z,8.60
2023-05-20T17:13:00.912Z,9.20
2023-05-20T17:16:02.524Z,8.90
2023-05-20T17:19:04.163Z,9.00
2023-05-20T17:22:05.839Z,14.30
2023-05-20T17:25:07.883Z,11.80
2023-05-20T17:28:09.500Z,10.20
2023-05-20T17:31:11.226Z,10.00
2023-05-20T17:34:12.933Z,10.00
2023-05-20T17:37:14.534Z,9.40
2023-05-20T17:40:16.120Z,9.50
2023-05-20T17:43:17.830Z,9.40
2023-05-20T17:46:19.466Z,9.20
2023-05-20T17:49:21.125Z,9.60
2023-05-20T17:52:22.832Z,10.40
2023-05-20T17:55:24.679Z,10.30
2023-05-20T17:58:26.480Z,11.10
2023-05-20T18:01:28.221Z,11.10
2023-05-20T18:04:30.038Z,11.90
2023-05-20T18:07:32.031Z,12.50
2023-05-20T18:10:33.937Z,12.80
2023-05-20T18:13:36.118Z,12.80
2023-05-20T18:16:37.980Z,13.70
2023-05-20T18:19:39.693Z,14.90
2023-05-20T18:22:41.606Z,13.10
2023-05-20T18:25:43.537Z,12.80
2023-05-20T18:28:45.216Z,12.90
2023-05-20T18:31:47.004Z,13.10
2023-05-20T18:34:48.608Z,12.10
2023-05-20T18:37:50.652Z,12.50
2023-05-20T18:40:52.373Z,12.70
2023-05-20T18:43:54.077Z,12.90
2023-05-20T18:46:55.750Z,12.40
2023-05-20T18:50:03.129Z,12.50
2023-05-20T18:53:05.221Z,12.60
2023-05-20T18:56:07.200Z,13.10
2023-05-20T18:59:08.810Z,15.70
2023-05-20T19:02:10.909Z,13.00
2023-05-20T19:05:12.820Z,13.90
2023-05-20T19:08:14.451Z,13.80
2023-05-20T19:11:16.290Z,14.70
2023-05-20T19:14:18.132Z,13.80
2023-05-20T19:17:21.066Z,14.70
2023-05-20T19:20:23.509Z,15.80
2023-05-20T19:23:25.174Z,16.50
2023-05-20T19:26:26.888Z,17.10
2023-05-20T19:29:28.829Z,15.50
2023-05-20T19:32:30.612Z,13.50
2023-05-20T19:35:33.335Z,15.60
2023-05-20T19:38:34.998Z,15.00
2023-05-20T19:41:37.131Z,15.70
2023-05-20T19:44:38.739Z,15.50
2023-05-20T19:47:43.752Z,16.20
2023-05-20T19:50:45.384Z,14.90
2023-05-20T19:53:46.984Z,16.10
2023-05-20T19:56:48.594Z,15.90
2023-05-20T19:59:52.289Z,15.70
2023-05-20T20:02:55.316Z,16.70
2023-05-20T20:05:57.217Z,15.90
2023-05-20T20:08:59.350Z,16.10
2023-05-20T20:12:01.121Z,17.10
2023-05-20T20:15:03.776Z,16.40
2023-05-20T20:18:05.470Z,16.60
2023-05-20T20:21:07.233Z,17.70
2023-05-20T20:24:09.101Z,17.90
2023-05-20T20:27:10.753Z,18.40
2023-05-20T20:30:13.671Z,17.20
2023-05-20T20:33:15.517Z,17.90
2023-05-20T20:36:17.257Z,17.80
2023-05-20T20:39:18.986Z,18.30
2023-05-20T20:42:21.032Z,18.40
2023-05-20T20:45:22.850Z,18.30
2023-05-20T20:48:24.495Z,19.10
2023-05-20T20:51:26.153Z,19.40
2023-05-20T20:54:28.481Z,19.80
2023-05-20T20:57:30.095Z,20.20
2023-05-20T21:00:31.723Z,18.20
2023-05-20T21:03:33.471Z,18.20
2023-05-20T21:06:35.196Z,19.30
2023-05-20T21:09:36.858Z,20.60
2023-05-20T21:12:38.878Z,22.00
2023-05-20T21:15:40.510Z,22.40
2023-05-20T21:18:42.141Z,21.30
2023-05-20T21:21:43.792Z,21.20
2023-05-20T21:24:45.955Z,20.10
2023-05-20T21:27:47.589Z,21.70
2023-05-20T21:30:49.408Z,23.00
2023-05-20T21:33:51.315Z,23.40
2023-05-20T21:36:52.902Z,22.70
2023-05-20T21:39:54.622Z,23.90
2023-05-20T21:42:56.249Z,23.90
2023-05-20T21:45:57.939Z,23.80
2023-05-20T21:48:59.569Z,22.90
2023-05-20T21:52:01.186Z,23.60
2023-05-20T21:55:02.823Z,24.60
2023-05-20T21:58:04.714Z,23.40
2023-05-20T22:01:06.763Z,23.90
2023-05-20T22:04:08.397Z,22.60
2023-05-20T22:07:10.470Z,21.10
2023-05-20T22:10:12.372Z,22.50
2023-05-20T22:13:14.048Z,23.00
2023-05-20T22:16:15.681Z,22.60
2023-05-20T22:19:17.768Z,22.10
2023-05-20T22:22:19.584Z,23.30
2023-05-20T22:25:21.136Z,22.70
2023-05-20T22:28:22.811Z,22.60
2023-05-20T22:31:24.521Z,22.70
2023-05-20T22:34:28.632Z,23.70
2023-05-20T22:37:31.454Z,21.50
2023-05-20T22:40:33.114Z,21.10
2023-05-20T22:43:34.781Z,21.90
2023-05-20T22:46:36.520Z,22.90
2023-05-20T22:49:38.458Z,22.00
2023-05-20T22:52:43.692Z,22.20
2023-05-20T22:55:45.628Z,22.80
2023-05-20T22:58:47.593Z,24.50
2023-05-20T23:01:49.889Z,24.20
2023-05-20T23:04:51.952Z,25.10
2023-05-20T23:07:53.764Z,26.90
2023-05-20T23:10:55.400Z,26.90
2023-05-20T23:13:57.112Z,28.80
2023-05-20T23:16:58.806Z,31.30
2023-05-20T23:20:00.496Z,31.90
2023-05-20T23:23:10.525Z,34.00
2023-05-20T23:26:13.482Z,34.40
2023-05-20T23:29:15.602Z,33.30
2023-05-20T23:32:17.196Z,35.30
2023-05-20T23:35:19.618Z,34.40
2023-05-20T23:38:21.328Z,34.10
2023-05-20T23:41:23.076Z,35.70
2023-05-20T23:44:24.741Z,35.90
2023-05-20T23:47:26.914Z,34.50
2023-05-20T23:50:28.611Z,33.90
2023-05-20T23:53:30.318Z,34.70
2023-05-20T23:56:31.893Z,35.20
2023-05-20T23:59:33.643Z,35.50
